createdAt,value
2023-03-01T00:00:37.574Z,0.4
2023-03-01T00:05:37.629Z,0.3
2023-03-01T00:10:56.152Z,0.3
2023-03-01T00:15:56.133Z,0.3
2023-03-01T00:21:37.547Z,0.4
2023-03-01T00:26:37.582Z,0.4
2023-03-01T00:31:56.165Z,0.3
2023-03-01T00:36:56.127Z,0.3
2023-03-01T00:41:56.118Z,0.3
2023-03-01T00:47:37.583Z,0
2023-03-01T00:52:37.676Z,0.2
2023-03-01T00:57:56.119Z,0.1
2023-03-01T01:03:37.589Z,0.1
2023-03-01T01:08:56.149Z,0
2023-03-01T01:14:37.587Z,0
2023-03-01T01:19:37.611Z,0
2023-03-01T01:24:56.113Z,-0.1
2023-03-01T01:29:56.106Z,-0.5
2023-03-01T01:35:37.610Z,-0.4
2023-03-01T01:40:37.604Z,-0.4
2023-03-01T01:45:56.115Z,-0.3
2023-03-01T01:50:56.147Z,-0.5
2023-03-01T01:56:37.595Z,-0.3
2023-03-01T02:01:37.575Z,-0.7
2023-03-01T02:06:56.089Z,-0.6
2023-03-01T02:11:56.228Z,-0.8
2023-03-01T02:17:37.600Z,-0.6
2023-03-01T02:22:56.120Z,-0.7
2023-03-01T02:27:56.134Z,-0.7
2023-03-01T02:33:37.570Z,-0.9
2023-03-01T02:38:37.562Z,-0.9
2023-03-01T02:43:37.598Z,-0.9
2023-03-01T02:48:37.573Z,-1
2023-03-01T02:53:37.580Z,-0.9
2023-03-01T02:58:56.138Z,-1.3
2023-03-01T03:04:37.613Z,-1.2
2023-03-01T03:09:56.108Z,-1.1
2023-03-01T03:15:37.592Z,-1.3
2023-03-01T03:20:37.594Z,-1.3
2023-03-01T03:25:56.100Z,-1.3
2023-03-01T03:31:37.697Z,-1.4
2023-03-01T03:36:56.128Z,-1.1
2023-03-01T03:42:37.618Z,-1.2
2023-03-01T03:47:56.119Z,-1.2
2023-03-01T03:52:56.144Z,-1.2
2023-03-01T03:58:37.550Z,-1
2023-03-01T04:03:37.588Z,-1.3
2023-03-01T04:08:37.593Z,-1.5
2023-03-01T04:13:56.064Z,-1.5
2023-03-01T04:19:37.593Z,-1.6
2023-03-01T04:24:56.101Z,-1.5
2023-03-01T04:29:56.134Z,-1.2
2023-03-01T04:35:37.729Z,-1.2
2023-03-01T04:40:56.063Z,-1.5
2023-03-01T04:45:56.142Z,-1.5
2023-03-01T04:51:37.558Z,-1.6
2023-03-01T04:56:56.088Z,-1.7
2023-03-01T05:01:56.079Z,-1.7
2023-03-01T05:06:56.437Z,-1.6
2023-03-01T05:12:37.561Z,-1.6
2023-03-01T05:17:56.113Z,-1.7
2023-03-01T05:22:56.109Z,-1.4
2023-03-01T05:27:56.104Z,-1.6
2023-03-01T05:33:38.825Z,-1.7
2023-03-01T05:38:37.567Z,-1.6
2023-03-01T05:43:56.081Z,-1.7
2023-03-01T05:49:39.670Z,-1.9
2023-03-01T05:54:37.557Z,-1.9
2023-03-01T05:59:56.105Z,-2
2023-03-01T06:05:37.575Z,-2.2
2023-03-01T06:10:56.109Z,-2.1
2023-03-01T06:15:56.122Z,-2
2023-03-01T06:20:56.076Z,-2.1
2023-03-01T06:26:37.574Z,-2.1
2023-03-01T06:31:56.069Z,-2
2023-03-01T06:36:56.091Z,-2.2
2023-03-01T06:42:37.543Z,-2
2023-03-01T06:47:37.548Z,-1.9
2023-03-01T06:52:56.046Z,-1.9
2023-03-01T06:58:37.559Z,-1.9
2023-03-01T07:03:37.584Z,-1.8
2023-03-01T07:08:56.052Z,-1.9
2023-03-01T07:13:56.070Z,-1.7
2023-03-01T07:18:56.059Z,-1.2
2023-03-01T07:24:37.576Z,-1
2023-03-01T07:29:56.075Z,-0.8
2023-03-01T07:35:37.537Z,-0.6
2023-03-01T07:40:56.031Z,0.4
2023-03-01T07:45:56.084Z,1.4
2023-03-01T07:51:37.531Z,2
2023-03-01T07:56:56.059Z,2.3
2023-03-01T08:02:37.537Z,2.2
2023-03-01T08:07:56.027Z,2.7
2023-03-01T08:12:56.053Z,3.3
2023-03-01T08:17:56.087Z,5.1
2023-03-01T08:23:14.877Z,6.8
2023-03-01T08:28:37.541Z,8.2
2023-03-01T08:33:56.069Z,9.2
2023-03-01T08:39:37.517Z,10
2023-03-01T08:44:37.538Z,10.9
2023-03-01T08:49:56.050Z,11.5
2023-03-01T08:54:56.053Z,11.9
2023-03-01T09:00:37.565Z,12.5
2023-03-01T09:05:56.071Z,12.2
2023-03-01T09:11:37.494Z,12.8
2023-03-01T09:16:37.606Z,13.2
2023-03-01T09:21:40.532Z,12.6
2023-03-01T09:26:56.074Z,11.5
2023-03-01T09:32:37.526Z,11.4
2023-03-01T09:37:37.576Z,10.6
2023-03-01T09:42:56.030Z,8.2
2023-03-01T09:47:56.070Z,8.8
2023-03-01T09:52:56.105Z,9
2023-03-01T09:58:37.465Z,8
2023-03-01T10:03:37.625Z,7.4
2023-03-01T10:08:56.090Z,8.3
2023-03-01T10:13:56.094Z,10.1
2023-03-01T10:19:37.610Z,9.8
2023-03-01T10:24:56.092Z,9.8
2023-03-01T10:29:56.054Z,8.3
2023-03-01T10:35:37.603Z,10.2
2023-03-01T10:40:56.067Z,11.3
2023-03-01T10:45:56.178Z,12.7
2023-03-01T10:51:37.530Z,13.4
2023-03-01T10:56:56.100Z,13.6
2023-03-01T11:01:56.144Z,13.7
2023-03-01T11:06:56.068Z,12.8
2023-03-01T11:11:56.060Z,12.9
2023-03-01T11:17:48.021Z,13.1
2023-03-01T11:22:37.626Z,13.1
2023-03-01T11:27:39.735Z,12
2023-03-01T11:32:56.267Z,11.1
2023-03-01T11:38:37.528Z,11
2023-03-01T11:43:37.536Z,11.5
2023-03-01T11:48:56.118Z,12.6
2023-03-01T11:54:37.536Z,11.9
2023-03-01T11:59:37.548Z,11.6
2023-03-01T12:04:56.072Z,11.4
2023-03-01T12:10:37.550Z,11.6
2023-03-01T12:15:56.140Z,10.3
2023-03-01T12:21:37.520Z,11
2023-03-01T12:26:37.577Z,9.7
2023-03-01T12:31:56.262Z,10.8
2023-03-01T12:37:37.496Z,10.5
2023-03-01T12:42:37.538Z,10.9
2023-03-01T12:47:56.209Z,11.1
2023-03-01T12:52:56.121Z,11.2
2023-03-01T12:57:56.056Z,11.5
2023-03-01T13:02:56.114Z,11.8
2023-03-01T13:08:37.540Z,12.4
2023-03-01T13:13:56.075Z,12.4
2023-03-01T13:20:37.572Z,11.9
2023-03-01T13:25:46.618Z,11.8
2023-03-01T13:30:56.061Z,11.9
2023-03-01T13:36:37.531Z,10.9
2023-03-01T13:41:37.584Z,10.8
2023-03-01T13:46:56.190Z,9.9
2023-03-01T13:52:37.553Z,9.8
2023-03-01T13:57:56.074Z,9
2023-03-01T14:03:37.594Z,9.2
2023-03-01T14:08:56.073Z,9.7
2023-03-01T14:13:56.105Z,9.9
2023-03-01T14:19:37.537Z,9.8
2023-03-01T14:24:37.540Z,10.7
2023-03-01T14:29:56.116Z,10.6
2023-03-01T14:34:56.113Z,11
2023-03-01T14:40:37.533Z,10.5
2023-03-01T14:45:37.613Z,10.9
2023-03-01T14:50:37.570Z,11.2
2023-03-01T14:55:56.073Z,11.1
2023-03-01T15:01:37.647Z,10.9
2023-03-01T15:06:56.095Z,10.6
2023-03-01T15:12:37.522Z,10.3
2023-03-01T15:17:37.570Z,10.3
2023-03-01T15:22:37.548Z,10.1
2023-03-01T15:27:56.064Z,10
2023-03-01T15:32:56.106Z,9.7
2023-03-01T15:37:56.121Z,9.3
2023-03-01T15:43:37.540Z,9.4
2023-03-01T15:48:56.092Z,9.2
2023-03-01T15:54:37.449Z,9.4
2023-03-01T15:59:37.533Z,9.3
2023-03-01T16:04:56.109Z,9.1
2023-03-01T16:10:37.542Z,9.1
2023-03-01T16:15:56.146Z,8.9
2023-03-01T16:21:37.714Z,8.8
2023-03-01T16:26:56.143Z,8.7
2023-03-01T16:32:37.553Z,8.6
2023-03-01T16:37:56.063Z,8.7
2023-03-01T16:42:56.089Z,8.4
2023-03-01T16:48:37.543Z,8.4
2023-03-01T16:53:37.634Z,8.4
2023-03-01T16:58:56.058Z,8.3
2023-03-01T17:03:56.051Z,7.9
2023-03-01T17:08:56.122Z,7.6
2023-03-01T17:14:37.527Z,7.4
2023-03-01T17:19:56.059Z,7.1
2023-03-01T17:24:56.092Z,7.1
2023-03-01T17:30:37.541Z,7
2023-03-01T17:35:56.133Z,7
2023-03-01T17:41:37.580Z,6.9
2023-03-01T17:46:56.062Z,6.8
2023-03-01T17:51:56.065Z,6.8
2023-03-01T17:56:56.162Z,6.7
2023-03-01T18:02:37.612Z,6.5
2023-03-01T18:07:56.085Z,6.4
2023-03-01T18:13:37.561Z,6.2
2023-03-01T18:18:37.550Z,5.9
2023-03-01T18:23:56.060Z,5.9
2023-03-01T18:29:37.573Z,5.7
2023-03-01T18:34:37.612Z,5.5
2023-03-01T18:39:56.079Z,5.2
2023-03-01T18:44:56.130Z,5.1
2023-03-01T18:50:37.589Z,4.9
2023-03-01T18:55:58.120Z,4.8
2023-03-01T19:00:56.106Z,4.8
2023-03-01T19:06:37.532Z,4.8
2023-03-01T19:11:56.089Z,4.7
2023-03-01T19:17:37.560Z,4.6
2023-03-01T19:22:56.036Z,4.4
2023-03-01T19:27:56.066Z,4.5
2023-03-01T19:33:37.572Z,4.3
2023-03-01T19:38:56.033Z,4.3
2023-03-01T19:44:37.567Z,4.3
2023-03-01T19:49:56.096Z,4.2
2023-03-01T19:55:37.499Z,4.1
2023-03-01T20:00:37.512Z,4
2023-03-01T20:05:56.035Z,3.8
2023-03-01T20:10:56.140Z,3.7
2023-03-01T20:16:37.553Z,3.6
2023-03-01T20:21:37.535Z,3.5
2023-03-01T20:26:37.524Z,3.4
2023-03-01T20:31:56.320Z,3.3
2023-03-01T20:36:56.129Z,3.3
2023-03-01T20:42:37.484Z,3.3
2023-03-01T20:47:37.507Z,3.2
2023-03-01T20:52:56.071Z,3.1
2023-03-01T20:58:37.492Z,3
2023-03-01T21:03:56.147Z,2.8
2023-03-01T21:08:56.093Z,2.8
2023-03-01T21:13:56.042Z,3
2023-03-01T21:19:37.533Z,3.1
2023-03-01T21:24:56.064Z,2.8
2023-03-01T21:29:56.044Z,2.9
2023-03-01T21:35:37.537Z,2.8
2023-03-01T21:40:37.642Z,2.7
2023-03-01T21:45:56.090Z,2.6
2023-03-01T21:50:56.027Z,2.3
2023-03-01T21:56:37.628Z,2.1
2023-03-01T22:01:56.009Z,1.9
2023-03-01T22:06:56.013Z,2
2023-03-01T22:12:56.065Z,1.9
2023-03-01T22:17:56.041Z,1.7
2023-03-01T22:23:37.507Z,1.5
2023-03-01T22:28:56.143Z,1.7
2023-03-01T22:34:37.572Z,1.9
2023-03-01T22:39:56.074Z,1.7
2023-03-01T22:45:37.516Z,1.6
2023-03-01T22:50:37.509Z,1.5
2023-03-01T22:55:56.022Z,1.4
2023-03-01T23:01:37.472Z,1.6
2023-03-01T23:06:37.474Z,1.1
2023-03-01T23:11:37.521Z,0.8
2023-03-01T23:16:56.130Z,1.1
2023-03-01T23:22:37.449Z,1.1
2023-03-01T23:27:37.473Z,1.2
2023-03-01T23:32:56.038Z,1.4
2023-03-01T23:37:56.028Z,1.4
2023-03-01T23:43:37.488Z,1.3
2023-03-01T23:48:37.604Z,1.3
2023-03-01T23:53:56.050Z,1.2
2023-03-01T23:59:37.490Z,1.1
